Terminal Aerodrome Forecast
Issued by NWS Pocatello, ID

Home | Current Version | Previous Version | Text Only | Print | Product List | Glossary On
Versions: 1 2 3 4 5 6 7 8 9 10 11 12 13
000
FTUS45 KPIH 062004 AAA
TAFPIH
TAF AMD
KPIH 062004Z 0620/0718 26011KT P6SM SCT060 BKN110
     FM070100 21007KT P6SM -RA SCT040 BKN070
     FM071000 20005KT P6SM VCSH BKN020 OVC045
     FM071400 23007KT P6SM SCT025 BKN050=

USA.gov is the U.S. government's official web portal to all federal, state and local government web resources and services.